createdAt,value
2018-09-27T00:00:11.970Z,101694.59
2018-09-27T00:00:46.579Z,101704.93
2018-09-27T00:01:21.235Z,101701.92
2018-09-27T00:01:55.867Z,101698.84
2018-09-27T00:02:30.530Z,101697.12
2018-09-27T00:03:05.255Z,101698.83
2018-09-27T00:03:40.080Z,101701.83
2018-09-27T00:04:14.751Z,101692.80
2018-09-27T00:04:49.346Z,101700.98
2018-09-27T00:05:23.972Z,101696.23
2018-09-27T00:05:58.619Z,101691.99
2018-09-27T00:06:33.588Z,101691.08
2018-09-27T00:07:08.558Z,101692.80
2018-09-27T00:07:43.159Z,101692.38
2018-09-27T00:08:17.772Z,101688.11
2018-09-27T00:08:52.411Z,101690.22
2018-09-27T00:09:27.019Z,101688.97
2018-09-27T00:10:01.630Z,101691.52
2018-09-27T00:10:37.107Z,101685.09
2018-09-27T00:11:12.683Z,101688.50
2018-09-27T00:11:47.283Z,101680.30
2018-09-27T00:12:21.916Z,101685.91
2018-09-27T00:12:56.581Z,101679.94
2018-09-27T00:13:31.254Z,101691.50
2018-09-27T00:14:05.980Z,101684.63
2018-09-27T00:14:40.626Z,101688.50
2018-09-27T00:15:15.254Z,101684.68
2018-09-27T00:15:49.964Z,101685.92
2018-09-27T00:16:24.579Z,101681.23
2018-09-27T00:16:59.244Z,101687.25
2018-09-27T00:17:33.931Z,101686.39
2018-09-27T00:18:08.584Z,101684.70
2018-09-27T00:18:43.318Z,101690.28
2018-09-27T00:19:18.010Z,101690.30
2018-09-27T00:19:53.327Z,101680.83
2018-09-27T00:20:27.965Z,101686.00
2018-09-27T00:21:02.645Z,101686.47
2018-09-27T00:21:37.291Z,101682.60
2018-09-27T00:22:11.953Z,101687.80
2018-09-27T00:22:46.636Z,101687.84
2018-09-27T00:23:21.304Z,101689.15
2018-09-27T00:23:56.096Z,101691.73
2018-09-27T00:24:30.727Z,101690.88
2018-09-27T00:25:05.999Z,101686.58
2018-09-27T00:25:40.664Z,101689.59
2018-09-27T00:26:15.260Z,101693.09
2018-09-27T00:26:49.931Z,101691.80
2018-09-27T00:27:24.584Z,101685.80
2018-09-27T00:27:59.276Z,101691.83
2018-09-27T00:28:34.031Z,101685.84
2018-09-27T00:29:08.759Z,101689.72
2018-09-27T00:29:43.375Z,101686.30
2018-09-27T00:30:17.996Z,101687.09
2018-09-27T00:30:52.603Z,101683.69
2018-09-27T00:31:27.579Z,101688.86
2018-09-27T00:32:02.241Z,101686.72
2018-09-27T00:32:36.910Z,101680.70
2018-09-27T00:33:11.552Z,101683.28
2018-09-27T00:33:46.156Z,101678.16
2018-09-27T00:34:21.114Z,101680.28
2018-09-27T00:34:55.711Z,101681.13
2018-09-27T00:35:30.425Z,101678.55
2018-09-27T00:36:05.073Z,101680.70
2018-09-27T00:36:39.695Z,101673.44
2018-09-27T00:37:14.458Z,101678.61
2018-09-27T00:37:49.063Z,101675.17
2018-09-27T00:38:23.674Z,101682.48
2018-09-27T00:38:58.342Z,101682.47
2018-09-27T00:39:32.953Z,101675.16
2018-09-27T00:40:07.680Z,101673.00
2018-09-27T00:40:42.276Z,101672.14
2018-09-27T00:41:16.878Z,101669.12
2018-09-27T00:41:51.535Z,101669.12
2018-09-27T00:42:26.316Z,101674.68
2018-09-27T00:43:00.932Z,101668.64
2018-09-27T00:43:36.167Z,101663.91
2018-09-27T00:44:11.158Z,101668.64
2018-09-27T00:44:46.096Z,101663.11
2018-09-27T00:45:20.683Z,101666.56
2018-09-27T00:45:55.315Z,101667.42
2018-09-27T00:46:29.424Z,101670.42
2018-09-27T00:47:04.023Z,101668.21
2018-09-27T00:47:38.713Z,101667.83
2018-09-27T00:48:15.528Z,101667.41
2018-09-27T00:48:50.216Z,101669.14
2018-09-27T00:49:25.094Z,101668.28
2018-09-27T00:49:59.785Z,101667.00
2018-09-27T00:50:34.420Z,101665.77
2018-09-27T00:51:09.034Z,101670.92
2018-09-27T00:51:43.715Z,101663.19
2018-09-27T00:52:18.338Z,101661.91
2018-09-27T00:52:55.823Z,101663.19
2018-09-27T00:53:30.512Z,101660.18
2018-09-27T00:54:05.148Z,101662.75
2018-09-27T00:54:39.762Z,101655.06
2018-09-27T00:55:14.383Z,101652.05
2018-09-27T00:55:48.982Z,101648.61
2018-09-27T00:56:23.710Z,101643.01
2018-09-27T00:56:58.335Z,101649.84
2018-09-27T00:57:32.956Z,101651.55
2018-09-27T00:58:07.987Z,101646.81
2018-09-27T00:58:42.661Z,101647.25
2018-09-27T00:59:17.299Z,101647.69
2018-09-27T00:59:51.940Z,101644.24
2018-09-27T01:00:26.580Z,101645.52
2018-09-27T01:01:01.215Z,101640.78
2018-09-27T01:01:35.939Z,101646.83
2018-09-27T01:02:10.611Z,101645.11
2018-09-27T01:02:45.247Z,101648.98
2018-09-27T01:03:19.404Z,101648.98
2018-09-27T01:03:54.015Z,101649.39
2018-09-27T01:04:28.714Z,101651.55
2018-09-27T01:05:03.368Z,101648.98
2018-09-27T01:05:38.461Z,101648.97
2018-09-27T01:06:13.082Z,101652.41
2018-09-27T01:06:47.712Z,101644.69
2018-09-27T01:07:21.845Z,101649.84
2018-09-27T01:07:55.971Z,101649.46
2018-09-27T01:08:30.583Z,101644.32
2018-09-27T01:09:07.512Z,101648.20
2018-09-27T01:09:42.276Z,101650.77
2018-09-27T01:10:16.905Z,101652.50
2018-09-27T01:10:51.633Z,101652.06
2018-09-27T01:11:26.265Z,101652.08
2018-09-27T01:12:00.931Z,101647.38
2018-09-27T01:12:35.548Z,101646.53
2018-09-27T01:13:10.147Z,101651.26
2018-09-27T01:13:44.748Z,101650.41
2018-09-27T01:14:19.431Z,101648.25
2018-09-27T01:14:54.054Z,101646.95
2018-09-27T01:15:28.964Z,101646.05
2018-09-27T01:16:03.636Z,101643.09
2018-09-27T01:16:38.509Z,101639.22
2018-09-27T01:17:13.656Z,101645.66
2018-09-27T01:17:48.663Z,101645.66
2018-09-27T01:18:23.381Z,101634.84
2018-09-27T01:18:58.537Z,101646.04
2018-09-27T01:19:33.215Z,101642.61
2018-09-27T01:20:08.036Z,101638.72
2018-09-27T01:20:42.720Z,101637.06
2018-09-27T01:21:17.485Z,101632.77
2018-09-27T01:21:52.099Z,101620.41
2018-09-27T01:22:26.837Z,101640.08
2018-09-27T01:23:02.967Z,101634.11
2018-09-27T01:23:38.021Z,101644.00
2018-09-27T01:24:12.714Z,101644.44
2018-09-27T01:24:47.885Z,101643.59
2018-09-27T01:25:22.489Z,101641.44
2018-09-27T01:25:57.118Z,101639.30
2018-09-27T01:26:31.711Z,101646.17
2018-09-27T01:27:06.576Z,101639.29
2018-09-27T01:27:41.268Z,101638.79
2018-09-27T01:28:15.927Z,101636.27
2018-09-27T01:28:50.766Z,101635.42
2018-09-27T01:29:25.395Z,101633.31
2018-09-27T01:30:00.935Z,101636.28
2018-09-27T01:30:35.914Z,101631.16
2018-09-27T01:31:11.551Z,101634.17
2018-09-27T01:31:46.299Z,101627.30
2018-09-27T01:32:21.563Z,101627.30
2018-09-27T01:32:56.670Z,101630.73
2018-09-27T01:33:31.290Z,101626.87
2018-09-27T01:34:06.240Z,101627.31
2018-09-27T01:34:41.188Z,101626.03
2018-09-27T01:35:16.208Z,101630.32
2018-09-27T01:35:50.947Z,101626.87
2018-09-27T01:36:25.557Z,101632.03
2018-09-27T01:37:00.164Z,101628.17
2018-09-27T01:37:34.967Z,101623.48
2018-09-27T01:38:10.338Z,101624.78
2018-09-27T01:38:45.150Z,101622.20
2018-09-27T01:39:19.808Z,101630.81
2018-09-27T01:39:54.506Z,101627.80
2018-09-27T01:40:29.278Z,101623.12
2018-09-27T01:41:03.970Z,101622.27
2018-09-27T01:41:38.894Z,101621.40
2018-09-27T01:42:13.909Z,101623.98
2018-09-27T01:42:48.541Z,101613.23
2018-09-27T01:43:23.156Z,101613.28
2018-09-27T01:43:57.835Z,101615.39
2018-09-27T01:44:32.491Z,101617.53
2018-09-27T01:45:08.268Z,101620.11
2018-09-27T01:45:43.128Z,101616.23
2018-09-27T01:46:17.764Z,101618.83
2018-09-27T01:46:52.365Z,101620.55
2018-09-27T01:47:27.017Z,101622.27
2018-09-27T01:48:02.043Z,101612.80
2018-09-27T01:48:36.750Z,101617.05
2018-09-27T01:49:11.464Z,101617.91
2018-09-27T01:49:46.629Z,101614.52
2018-09-27T01:50:21.241Z,101605.48
2018-09-27T01:50:55.846Z,101617.05
2018-09-27T01:51:30.512Z,101609.78
2018-09-27T01:52:05.250Z,101611.89
2018-09-27T01:52:40.091Z,101612.75
2018-09-27T01:53:14.872Z,101619.63
2018-09-27T01:53:49.488Z,101627.80
2018-09-27T01:54:24.107Z,101623.13
2018-09-27T01:54:58.755Z,101621.78
2018-09-27T01:55:33.414Z,101620.11
2018-09-27T01:56:08.238Z,101620.53
2018-09-27T01:56:43.018Z,101620.92
2018-09-27T01:57:17.686Z,101620.92
2018-09-27T01:57:51.817Z,101615.81
2018-09-27T01:58:26.596Z,101625.28
2018-09-27T01:59:01.228Z,101622.64
2018-09-27T01:59:35.891Z,101620.10
2018-09-27T02:00:10.891Z,101615.00
2018-09-27T02:00:46.091Z,101616.69
2018-09-27T02:01:20.780Z,101619.30
2018-09-27T02:01:55.616Z,101612.00
2018-09-27T02:02:30.247Z,101614.58
2018-09-27T02:03:07.747Z,101616.72
2018-09-27T02:03:42.432Z,101613.29
2018-09-27T02:04:17.062Z,101611.56
2018-09-27T02:04:51.784Z,101610.66
2018-09-27T02:05:26.457Z,101608.08
2018-09-27T02:06:00.582Z,101605.12
2018-09-27T02:06:35.954Z,101612.85
2018-09-27T02:07:11.032Z,101604.21
2018-09-27T02:07:45.956Z,101608.08
2018-09-27T02:08:20.613Z,101608.49
2018-09-27T02:08:55.198Z,101605.91
2018-09-27T02:09:29.846Z,101602.90
2018-09-27T02:10:05.014Z,101603.77
2018-09-27T02:10:39.877Z,101599.89
2018-09-27T02:11:14.794Z,101607.63
2018-09-27T02:11:49.484Z,101608.06
2018-09-27T02:12:24.256Z,101607.22
2018-09-27T02:12:58.936Z,101605.93
2018-09-27T02:13:33.611Z,101613.22
2018-09-27T02:14:08.947Z,101613.65
2018-09-27T02:14:43.592Z,101608.51
2018-09-27T02:15:18.341Z,101610.66
2018-09-27T02:15:52.978Z,101616.23
2018-09-27T02:16:27.591Z,101613.61
2018-09-27T02:17:02.201Z,101609.78
2018-09-27T02:17:36.871Z,101605.07
2018-09-27T02:18:11.615Z,101611.50
2018-09-27T02:18:46.326Z,101612.38
2018-09-27T02:19:20.927Z,101606.34
2018-09-27T02:19:55.586Z,101605.93
2018-09-27T02:20:30.183Z,101605.92
2018-09-27T02:21:04.820Z,101610.64
2018-09-27T02:21:39.703Z,101603.78
2018-09-27T02:22:14.566Z,101604.20
2018-09-27T02:22:49.259Z,101608.48
2018-09-27T02:23:23.867Z,101609.36
2018-09-27T02:23:58.452Z,101605.06
2018-09-27T02:24:33.069Z,101604.64
2018-09-27T02:25:08.792Z,101602.91
2018-09-27T02:25:43.584Z,101601.23
2018-09-27T02:26:18.315Z,101602.06
2018-09-27T02:26:53.008Z,101600.77
2018-09-27T02:27:27.624Z,101600.33
2018-09-27T02:28:02.251Z,101599.47
2018-09-27T02:28:36.971Z,101589.63
2018-09-27T02:29:12.065Z,101595.64
2018-09-27T02:29:46.705Z,101590.06
2018-09-27T02:30:21.340Z,101592.22
2018-09-27T02:30:56.075Z,101587.07
2018-09-27T02:31:30.229Z,101590.48
2018-09-27T02:32:04.886Z,101591.36
2018-09-27T02:32:39.694Z,101590.50
2018-09-27T02:33:14.458Z,101592.64
2018-09-27T02:33:49.087Z,101588.35
2018-09-27T02:34:24.041Z,101588.78
2018-09-27T02:34:58.663Z,101589.64
2018-09-27T02:35:33.287Z,101586.64
2018-09-27T02:36:08.091Z,101589.21
2018-09-27T02:36:42.785Z,101593.93
2018-09-27T02:37:17.598Z,101590.48
2018-09-27T02:37:52.198Z,101592.23
2018-09-27T02:38:26.834Z,101592.22
2018-09-27T02:39:01.785Z,101591.41
2018-09-27T02:39:36.958Z,101583.25
2018-09-27T02:40:12.361Z,101589.69
2018-09-27T02:40:47.053Z,101587.11
2018-09-27T02:41:21.664Z,101588.84
2018-09-27T02:41:56.299Z,101584.97
2018-09-27T02:42:30.424Z,101587.98
2018-09-27T02:43:05.068Z,101577.71
2018-09-27T02:43:39.748Z,101590.13
2018-09-27T02:44:14.445Z,101585.02
2018-09-27T02:44:49.067Z,101592.28
2018-09-27T02:45:23.912Z,101588.89
2018-09-27T02:45:58.537Z,101586.31
2018-09-27T02:46:33.179Z,101590.56
2018-09-27T02:47:08.835Z,101590.56
2018-09-27T02:47:44.755Z,101592.27
2018-09-27T02:48:19.495Z,101584.10
2018-09-27T02:48:54.112Z,101591.80
2018-09-27T02:49:28.748Z,101585.40
2018-09-27T02:50:03.601Z,101588.84
2018-09-27T02:50:38.484Z,101590.55
2018-09-27T02:51:13.449Z,101590.56
2018-09-27T02:51:48.098Z,101589.27
2018-09-27T02:52:22.752Z,101586.27
2018-09-27T02:52:57.377Z,101584.12
2018-09-27T02:53:32.023Z,101585.83
2018-09-27T02:54:06.889Z,101583.68
2018-09-27T02:54:41.619Z,101579.80
2018-09-27T02:55:16.436Z,101578.89
2018-09-27T02:55:51.024Z,101583.63
2018-09-27T02:56:25.636Z,101578.04
2018-09-27T02:57:00.382Z,101581.48
2018-09-27T02:57:35.003Z,101577.65
2018-09-27T02:58:09.910Z,101585.35
2018-09-27T02:58:45.148Z,101587.06
2018-09-27T02:59:19.798Z,101590.02
2018-09-27T02:59:54.600Z,101580.61
2018-09-27T03:00:29.457Z,101582.81
2018-09-27T03:01:04.058Z,101584.12
2018-09-27T03:01:38.784Z,101576.44
2018-09-27T03:02:13.534Z,101583.73
2018-09-27T03:02:48.241Z,101574.72
2018-09-27T03:03:22.872Z,101585.89
2018-09-27T03:03:57.520Z,101583.73
2018-09-27T03:04:32.151Z,101580.73
2018-09-27T03:05:07.691Z,101582.01
2018-09-27T03:05:42.631Z,101571.70
2018-09-27T03:06:17.323Z,101583.27
2018-09-27T03:06:51.995Z,101581.58
2018-09-27T03:07:26.640Z,101577.67
2018-09-27T03:08:01.308Z,101577.28
2018-09-27T03:08:35.987Z,101568.27
2018-09-27T03:09:12.292Z,101578.16
2018-09-27T03:09:46.959Z,101573.48
2018-09-27T03:10:21.579Z,101570.89
2018-09-27T03:10:56.212Z,101577.34
2018-09-27T03:11:30.805Z,101570.45
2018-09-27T03:12:05.465Z,101575.16
2018-09-27T03:12:40.393Z,101571.32
2018-09-27T03:13:15.236Z,101567.45
2018-09-27T03:13:49.886Z,101567.41
2018-09-27T03:14:24.684Z,101568.31
2018-09-27T03:14:59.271Z,101573.42
2018-09-27T03:15:33.916Z,101567.83
2018-09-27T03:16:08.728Z,101572.98
2018-09-27T03:16:43.453Z,101566.11
2018-09-27T03:17:18.263Z,101569.50
2018-09-27T03:17:52.844Z,101566.92
2018-09-27T03:18:27.449Z,101566.05
2018-09-27T03:19:02.122Z,101573.36
2018-09-27T03:19:36.848Z,101563.09
2018-09-27T03:20:11.622Z,101572.07
2018-09-27T03:20:46.444Z,101572.50
2018-09-27T03:21:21.280Z,101572.50
2018-09-27T03:21:55.912Z,101569.06
2018-09-27T03:22:30.549Z,101571.16
2018-09-27T03:23:05.186Z,101569.92
2018-09-27T03:23:39.960Z,101569.86
2018-09-27T03:24:14.868Z,101566.83
2018-09-27T03:24:49.561Z,101565.97
2018-09-27T03:25:24.215Z,101573.23
2018-09-27T03:25:58.852Z,101563.39
2018-09-27T03:26:33.726Z,101562.09
2018-09-27T03:27:08.648Z,101562.54
2018-09-27T03:27:43.341Z,101568.13
2018-09-27T03:28:18.255Z,101568.08
2018-09-27T03:28:52.884Z,101561.63
2018-09-27T03:29:27.511Z,101563.83
2018-09-27T03:30:02.178Z,101565.98
2018-09-27T03:30:36.925Z,101572.06
2018-09-27T03:31:11.728Z,101567.77
2018-09-27T03:31:46.616Z,101568.63
2018-09-27T03:32:21.318Z,101562.67
2018-09-27T03:32:55.968Z,101569.93
2018-09-27T03:33:30.553Z,101569.98
2018-09-27T03:34:05.196Z,101568.25
2018-09-27T03:34:39.916Z,101565.30
2018-09-27T03:35:14.954Z,101567.41
2018-09-27T03:35:50.016Z,101577.73
2018-09-27T03:36:24.680Z,101576.87
2018-09-27T03:36:59.786Z,101571.70
2018-09-27T03:37:34.411Z,101582.03
2018-09-27T03:38:09.214Z,101582.88
2018-09-27T03:38:43.859Z,101578.59
2018-09-27T03:39:18.539Z,101585.89
2018-09-27T03:39:53.261Z,101584.12
2018-09-27T03:40:28.131Z,101580.23
2018-09-27T03:41:02.915Z,101587.56
2018-09-27T03:41:37.755Z,101585.02
2018-09-27T03:42:12.619Z,101569.99
2018-09-27T03:42:47.247Z,101580.73
2018-09-27T03:43:21.842Z,101579.45
2018-09-27T03:43:57.331Z,101576.00
2018-09-27T03:44:31.939Z,101573.47
2018-09-27T03:45:06.718Z,101573.00
2018-09-27T03:45:41.403Z,101560.57
2018-09-27T03:46:16.363Z,101573.38
2018-09-27T03:46:51.263Z,101573.38
2018-09-27T03:47:26.110Z,101573.80
2018-09-27T03:48:00.726Z,101570.83
2018-09-27T03:48:35.424Z,101576.42
2018-09-27T03:49:10.349Z,101563.15
2018-09-27T03:49:45.036Z,101572.56
2018-09-27T03:50:19.650Z,101571.70
2018-09-27T03:50:54.420Z,101563.09
2018-09-27T03:51:29.056Z,101566.06
2018-09-27T03:52:03.746Z,101566.92
2018-09-27T03:52:38.778Z,101562.66
2018-09-27T03:53:13.499Z,101570.39
2018-09-27T03:53:48.135Z,101566.97
2018-09-27T03:54:22.859Z,101568.26
2018-09-27T03:54:57.591Z,101560.14
2018-09-27T03:55:32.307Z,101566.16
2018-09-27T03:56:06.964Z,101561.00
2018-09-27T03:56:41.736Z,101567.02
2018-09-27T03:57:16.439Z,101565.67
2018-09-27T03:57:51.088Z,101563.54
2018-09-27T03:58:25.728Z,101564.45
2018-09-27T03:59:02.263Z,101567.03
2018-09-27T03:59:38.140Z,101561.39
2018-09-27T04:00:12.920Z,101561.86
2018-09-27T04:00:48.014Z,101566.17
2018-09-27T04:01:22.613Z,101563.65
2018-09-27T04:01:57.361Z,101560.21
2018-09-27T04:02:31.999Z,101564.09
2018-09-27T04:03:07.432Z,101551.66
2018-09-27T04:03:42.490Z,101552.95
2018-09-27T04:04:17.152Z,101560.26
2018-09-27T04:04:51.777Z,101552.95
2018-09-27T04:05:26.386Z,101557.20
2018-09-27T04:06:01.109Z,101555.05
2018-09-27T04:06:35.799Z,101559.77
2018-09-27T04:07:10.567Z,101555.05
2018-09-27T04:07:45.282Z,101554.19
2018-09-27T04:08:19.892Z,101558.48
2018-09-27T04:08:54.575Z,101553.77
2018-09-27T04:09:29.282Z,101548.61
2018-09-27T04:10:03.977Z,101556.34
2018-09-27T04:10:38.782Z,101556.81
2018-09-27T04:11:13.739Z,101555.48
2018-09-27T04:11:48.427Z,101548.17
2018-09-27T04:12:23.062Z,101553.27
2018-09-27T04:12:57.807Z,101550.27
2018-09-27T04:13:32.416Z,101555.42
2018-09-27T04:14:07.403Z,101546.45
2018-09-27T04:14:42.101Z,101554.19
2018-09-27T04:15:17.160Z,101549.94
2018-09-27T04:15:51.811Z,101558.50
2018-09-27T04:16:26.598Z,101558.93
2018-09-27T04:17:01.770Z,101557.62
2018-09-27T04:17:36.539Z,101556.78
2018-09-27T04:18:11.421Z,101559.35
2018-09-27T04:18:46.629Z,101559.77
2018-09-27T04:19:21.447Z,101552.47
2018-09-27T04:19:56.088Z,101553.77
2018-09-27T04:20:30.793Z,101552.47
2018-09-27T04:21:06.344Z,101550.33
2018-09-27T04:21:40.893Z,101554.20
2018-09-27T04:22:16.172Z,101556.34
2018-09-27T04:22:50.867Z,101555.05
2018-09-27T04:23:25.676Z,101550.75
2018-09-27T04:24:00.377Z,101544.30
2018-09-27T04:24:35.353Z,101543.88
2018-09-27T04:25:10.347Z,101555.05
2018-09-27T04:25:45.196Z,101549.89
2018-09-27T04:26:19.318Z,101545.59
2018-09-27T04:26:53.499Z,101550.75
2018-09-27T04:27:27.607Z,101545.60
2018-09-27T04:28:01.779Z,101543.43
2018-09-27T04:28:36.581Z,101542.53
2018-09-27T04:29:11.309Z,101542.52
2018-09-27T04:29:46.067Z,101542.02
2018-09-27T04:30:20.210Z,101545.48
2018-09-27T04:30:54.835Z,101545.48
2018-09-27T04:31:29.472Z,101544.20
2018-09-27T04:32:04.250Z,101548.97
2018-09-27T04:32:39.063Z,101540.38
2018-09-27T04:33:13.853Z,101538.64
2018-09-27T04:33:48.665Z,101536.52
2018-09-27T04:34:23.432Z,101542.10
2018-09-27T04:34:58.079Z,101534.73
2018-09-27T04:35:32.712Z,101538.22
2018-09-27T04:36:07.555Z,101543.81
2018-09-27T04:36:42.481Z,101538.28
2018-09-27T04:37:17.257Z,101531.41
2018-09-27T04:37:51.898Z,101531.41
2018-09-27T04:38:26.497Z,101532.69
2018-09-27T04:39:00.632Z,101537.80
2018-09-27T04:39:35.326Z,101534.84
2018-09-27T04:40:10.001Z,101539.08
2018-09-27T04:40:44.787Z,101539.09
2018-09-27T04:41:19.480Z,101540.00
2018-09-27T04:41:54.090Z,101542.58
2018-09-27T04:42:28.724Z,101533.98
2018-09-27T04:43:03.355Z,101539.58
2018-09-27T04:43:38.288Z,101531.42
2018-09-27T04:44:13.117Z,101539.59
2018-09-27T04:44:47.729Z,101536.61
2018-09-27T04:45:22.340Z,101530.18
2018-09-27T04:45:56.962Z,101535.76
2018-09-27T04:46:31.826Z,101529.27
2018-09-27T04:47:07.041Z,101528.88
2018-09-27T04:47:41.811Z,101525.02
2018-09-27T04:48:16.478Z,101525.88
2018-09-27T04:48:51.092Z,101527.16
2018-09-27T04:49:25.728Z,101532.28
2018-09-27T04:50:00.318Z,101529.27
2018-09-27T04:50:35.032Z,101527.59
2018-09-27T04:51:10.061Z,101528.45
2018-09-27T04:51:45.002Z,101527.54
2018-09-27T04:52:19.870Z,101521.53
2018-09-27T04:52:54.517Z,101525.39
2018-09-27T04:53:29.139Z,101531.41
2018-09-27T04:54:03.799Z,101526.69
2018-09-27T04:54:38.960Z,101528.84
2018-09-27T04:55:13.711Z,101523.30
2018-09-27T04:55:48.317Z,101524.97
2018-09-27T04:56:22.923Z,101527.98
2018-09-27T04:56:57.546Z,101522.87
2018-09-27T04:57:32.163Z,101525.83
2018-09-27T04:58:06.949Z,101531.42
2018-09-27T04:58:41.846Z,101530.12
2018-09-27T04:59:17.052Z,101533.13
2018-09-27T04:59:51.713Z,101533.61
2018-09-27T05:00:26.515Z,101532.75
2018-09-27T05:01:01.114Z,101539.59
2018-09-27T05:01:35.868Z,101536.19
2018-09-27T05:02:10.854Z,101533.62
2018-09-27T05:02:46.275Z,101533.23
2018-09-27T05:03:20.947Z,101537.10
2018-09-27T05:03:55.616Z,101534.09
2018-09-27T05:04:30.456Z,101526.79
2018-09-27T05:05:06.052Z,101536.67
2018-09-27T05:05:40.926Z,101526.80
2018-09-27T05:06:15.627Z,101534.53
2018-09-27T05:06:50.453Z,101530.66
2018-09-27T05:07:25.101Z,101531.09
2018-09-27T05:07:59.733Z,101529.79
2018-09-27T05:08:34.335Z,101537.49
2018-09-27T05:09:09.748Z,101530.66
2018-09-27T05:09:44.657Z,101535.38
2018-09-27T05:10:19.322Z,101533.19
2018-09-27T05:10:53.956Z,101533.66
2018-09-27T05:11:28.572Z,101530.60
2018-09-27T05:12:03.227Z,101534.42
2018-09-27T05:12:38.126Z,101540.01
2018-09-27T05:13:13.001Z,101540.86
2018-09-27T05:13:47.915Z,101535.27
2018-09-27T05:14:22.576Z,101536.56
2018-09-27T05:14:57.191Z,101540.00
2018-09-27T05:15:31.836Z,101540.87
2018-09-27T05:16:06.965Z,101532.70
2018-09-27T05:16:41.895Z,101541.72
2018-09-27T05:17:16.775Z,101536.98
2018-09-27T05:17:51.515Z,101545.16
2018-09-27T05:18:26.122Z,101538.28
2018-09-27T05:19:00.796Z,101537.42
2018-09-27T05:19:35.543Z,101535.27
2018-09-27T05:20:10.267Z,101541.72
2018-09-27T05:20:44.987Z,101535.69
2018-09-27T05:21:19.615Z,101539.56
2018-09-27T05:21:54.255Z,101538.72
2018-09-27T05:22:28.872Z,101539.58
2018-09-27T05:23:03.509Z,101540.05
2018-09-27T05:23:38.244Z,101546.03
2018-09-27T05:24:13.275Z,101545.66
2018-09-27T05:24:48.047Z,101540.92
2018-09-27T05:25:22.776Z,101539.20
2018-09-27T05:25:57.980Z,101540.07
2018-09-27T05:26:33.207Z,101550.80
2018-09-27T05:27:08.484Z,101538.78
2018-09-27T05:27:43.326Z,101545.64
2018-09-27T05:28:17.968Z,101545.60
2018-09-27T05:28:52.630Z,101545.60
2018-09-27T05:29:27.252Z,101550.75
2018-09-27T05:30:01.885Z,101546.88
2018-09-27T05:30:36.635Z,101550.75
2018-09-27T05:31:11.491Z,101548.59
2018-09-27T05:31:46.319Z,101549.88
2018-09-27T05:32:20.942Z,101551.61
2018-09-27T05:32:55.571Z,101551.56
2018-09-27T05:33:30.372Z,101549.84
2018-09-27T05:34:05.182Z,101549.41
2018-09-27T05:34:40.046Z,101557.95
2018-09-27T05:35:15.566Z,101552.41
2018-09-27T05:35:50.207Z,101547.69
2018-09-27T05:36:25.016Z,101555.36
2018-09-27T05:36:59.633Z,101546.77
2018-09-27T05:37:34.450Z,101548.91
2018-09-27T05:38:09.658Z,101547.61
2018-09-27T05:38:44.665Z,101553.20
2018-09-27T05:39:18.788Z,101548.91
2018-09-27T05:39:53.386Z,101551.05
2018-09-27T05:40:28.015Z,101548.90
2018-09-27T05:41:02.632Z,101548.91
2018-09-27T05:41:38.091Z,101544.19
2018-09-27T05:42:13.052Z,101544.19
2018-09-27T05:42:47.765Z,101535.21
2018-09-27T05:43:22.724Z,101542.08
2018-09-27T05:43:57.332Z,101542.03
2018-09-27T05:44:31.960Z,101534.73
2018-09-27T05:45:07.019Z,101536.06
2018-09-27T05:45:41.808Z,101544.19
2018-09-27T05:46:17.882Z,101539.89
2018-09-27T05:46:52.516Z,101540.75
2018-09-27T05:47:27.127Z,101543.33
2018-09-27T05:48:01.732Z,101546.78
2018-09-27T05:48:36.502Z,101532.20
2018-09-27T05:49:11.559Z,101544.59
2018-09-27T05:49:46.402Z,101536.02
2018-09-27T05:50:21.404Z,101542.09
2018-09-27T05:50:56.028Z,101540.33
2018-09-27T05:51:30.861Z,101530.06
2018-09-27T05:52:05.651Z,101537.80
2018-09-27T05:52:40.428Z,101541.67
2018-09-27T05:53:14.683Z,101536.52
2018-09-27T05:53:49.375Z,101537.80
2018-09-27T05:54:23.971Z,101541.24
2018-09-27T05:54:58.608Z,101534.79
2018-09-27T05:55:33.230Z,101537.37
2018-09-27T05:56:08.361Z,101537.79
2018-09-27T05:56:43.082Z,101540.37
2018-09-27T05:57:17.739Z,101537.36
2018-09-27T05:57:52.387Z,101539.03
2018-09-27T05:58:27.299Z,101540.74
2018-09-27T05:59:01.951Z,101544.18
2018-09-27T05:59:36.644Z,101542.84
2018-09-27T06:00:11.403Z,101544.11
2018-09-27T06:00:46.378Z,101544.11
2018-09-27T06:01:20.986Z,101538.52
2018-09-27T06:01:55.136Z,101542.78
2018-09-27T06:02:29.939Z,101539.75
2018-09-27T06:03:04.549Z,101541.89
2018-09-27T06:03:39.599Z,101538.83
2018-09-27T06:04:14.821Z,101537.16
2018-09-27T06:04:49.646Z,101530.27
2018-09-27T06:05:24.340Z,101534.14
2018-09-27T06:05:58.935Z,101538.41
2018-09-27T06:06:33.547Z,101535.81
2018-09-27T06:07:08.637Z,101536.94
2018-09-27T06:07:44.113Z,101531.42
2018-09-27T06:08:18.986Z,101537.82
2018-09-27T06:08:53.785Z,101541.25
2018-09-27T06:09:28.484Z,101536.47
2018-09-27T06:10:03.689Z,101544.27
2018-09-27T06:10:38.861Z,101541.27
2018-09-27T06:11:13.702Z,101546.50
2018-09-27T06:11:48.740Z,101537.95
2018-09-27T06:12:23.481Z,101540.92
2018-09-27T06:12:58.220Z,101543.55
2018-09-27T06:13:32.847Z,101548.30
2018-09-27T06:14:08.452Z,101545.69
2018-09-27T06:14:44.109Z,101543.55
2018-09-27T06:15:18.828Z,101550.00
2018-09-27T06:15:53.451Z,101537.55
2018-09-27T06:16:28.057Z,101538.83
2018-09-27T06:17:02.687Z,101546.07
2018-09-27T06:17:37.367Z,101544.78
2018-09-27T06:18:12.145Z,101547.30
2018-09-27T06:18:46.840Z,101545.19
2018-09-27T06:19:21.521Z,101540.46
2018-09-27T06:19:56.312Z,101545.61
2018-09-27T06:20:31.092Z,101543.47
2018-09-27T06:21:06.152Z,101542.62
2018-09-27T06:21:40.885Z,101538.37
2018-09-27T06:22:15.824Z,101539.63
2018-09-27T06:22:50.515Z,101541.38
2018-09-27T06:23:25.137Z,101540.89
2018-09-27T06:23:59.748Z,101540.89
2018-09-27T06:24:34.415Z,101545.19
2018-09-27T06:25:09.237Z,101540.03
2018-09-27T06:25:44.267Z,101540.02
2018-09-27T06:26:19.354Z,101539.61
2018-09-27T06:26:54.055Z,101535.73
2018-09-27T06:27:28.753Z,101539.59
2018-09-27T06:28:03.553Z,101539.13
2018-09-27T06:28:38.234Z,101540.39
2018-09-27T06:29:13.149Z,101539.97
2018-09-27T06:29:48.392Z,101536.45
2018-09-27T06:30:23.152Z,101532.59
2018-09-27T06:30:57.877Z,101531.27
2018-09-27T06:31:32.482Z,101534.23
2018-09-27T06:32:07.352Z,101538.52
2018-09-27T06:32:42.463Z,101530.77
2018-09-27T06:33:16.743Z,101534.64
2018-09-27T06:33:51.570Z,101539.31
2018-09-27T06:34:26.268Z,101538.87
2018-09-27T06:35:01.151Z,101531.97
2018-09-27T06:35:35.969Z,101535.26
2018-09-27T06:36:10.780Z,101530.54
2018-09-27T06:36:45.480Z,101531.38